createdAt,value
2017-09-25T00:02:06.935Z,14.20
2017-09-25T00:04:34.121Z,13.90
2017-09-25T00:07:00.438Z,13.90
2017-09-25T00:09:26.742Z,13.90
2017-09-25T00:11:53.778Z,13.60
2017-09-25T00:14:20.438Z,13.50
2017-09-25T00:16:47.503Z,13.40
2017-09-25T00:19:13.816Z,13.40
2017-09-25T00:21:40.824Z,13.70
2017-09-25T00:24:07.155Z,13.70
2017-09-25T00:26:33.480Z,13.70
2017-09-25T00:28:59.928Z,13.60
2017-09-25T00:31:26.239Z,13.60
2017-09-25T00:33:52.531Z,13.40
2017-09-25T00:36:18.836Z,13.30
2017-09-25T00:38:45.843Z,13.40
2017-09-25T00:41:12.204Z,13.40
2017-09-25T00:43:39.243Z,13.20
2017-09-25T00:46:05.604Z,13.20
2017-09-25T00:48:32.642Z,13.10
2017-09-25T00:50:59.684Z,13.10
2017-09-25T00:53:38.980Z,13.00
2017-09-25T00:56:05.312Z,13.00
2017-09-25T00:58:31.744Z,12.90
2017-09-25T01:01:10.289Z,12.90
2017-09-25T01:03:48.856Z,12.80
2017-09-25T01:06:25.459Z,12.70
2017-09-25T01:08:51.925Z,12.60
2017-09-25T01:11:18.965Z,12.70
2017-09-25T01:13:45.292Z,12.70
2017-09-25T01:16:12.332Z,12.60
2017-09-25T01:18:38.668Z,12.50
2017-09-25T01:21:05.124Z,12.40
2017-09-25T01:23:32.173Z,12.40
2017-09-25T01:25:59.233Z,12.30
2017-09-25T01:28:25.553Z,12.30
2017-09-25T01:30:51.844Z,12.20
2017-09-25T01:33:18.143Z,12.20
2017-09-25T01:35:44.435Z,12.20
2017-09-25T01:38:11.659Z,12.00
2017-09-25T01:40:37.974Z,12.00
2017-09-25T01:43:04.258Z,11.90
2017-09-25T01:45:30.548Z,12.00
2017-09-25T01:47:56.831Z,12.00
2017-09-25T01:50:23.141Z,11.90
2017-09-25T01:52:50.768Z,11.90
2017-09-25T01:55:17.819Z,11.90
2017-09-25T01:57:44.108Z,11.90
2017-09-25T02:00:10.420Z,11.90
2017-09-25T02:02:36.729Z,11.80
2017-09-25T02:05:03.912Z,11.80
2017-09-25T02:07:30.215Z,11.80
2017-09-25T02:09:57.287Z,11.80
2017-09-25T02:12:30.667Z,11.80
2017-09-25T02:14:56.962Z,11.80
2017-09-25T02:17:23.271Z,11.80
2017-09-25T02:19:49.547Z,11.90
2017-09-25T02:22:16.584Z,12.00
2017-09-25T02:24:43.620Z,12.00
2017-09-25T02:27:10.667Z,12.00
2017-09-25T02:29:36.932Z,11.90
2017-09-25T02:32:03.312Z,11.90
2017-09-25T02:34:29.747Z,12.00
2017-09-25T02:36:56.072Z,12.00
2017-09-25T02:39:22.374Z,12.00
2017-09-25T02:41:48.665Z,11.90
2017-09-25T02:44:15.700Z,11.90
2017-09-25T02:46:42.713Z,11.90
2017-09-25T02:49:09.086Z,11.90
2017-09-25T02:51:36.128Z,12.00
2017-09-25T02:54:03.185Z,12.10
2017-09-25T02:56:30.237Z,12.20
2017-09-25T02:58:57.307Z,12.30
2017-09-25T03:01:23.658Z,12.30
2017-09-25T03:03:49.958Z,12.30
2017-09-25T03:06:16.480Z,12.00
2017-09-25T03:08:42.804Z,12.00
2017-09-25T03:11:09.804Z,12.20
2017-09-25T03:13:36.119Z,12.20
2017-09-25T03:16:02.416Z,12.20
2017-09-25T03:18:29.471Z,12.10
2017-09-25T03:20:55.796Z,12.00
2017-09-25T03:23:22.101Z,12.10
2017-09-25T03:25:48.369Z,12.10
2017-09-25T03:28:14.701Z,12.20
2017-09-25T03:30:41.031Z,12.10
2017-09-25T03:33:07.352Z,12.00
2017-09-25T03:35:33.693Z,11.90
2017-09-25T03:37:59.976Z,11.80
2017-09-25T03:40:27.908Z,11.90
2017-09-25T03:42:54.222Z,11.90
2017-09-25T03:45:20.499Z,11.90
2017-09-25T03:47:46.848Z,11.80
2017-09-25T03:50:13.864Z,11.70
2017-09-25T03:52:40.205Z,11.70
2017-09-25T03:55:06.657Z,11.70
2017-09-25T03:57:33.674Z,11.70
2017-09-25T04:00:00.034Z,11.70
2017-09-25T04:02:27.109Z,11.60
2017-09-25T04:04:53.452Z,11.60
2017-09-25T04:07:19.767Z,11.50
2017-09-25T04:09:46.091Z,11.40
2017-09-25T04:12:12.368Z,11.40
2017-09-25T04:14:38.696Z,11.30
2017-09-25T04:17:04.980Z,11.30
2017-09-25T04:19:31.381Z,11.30
2017-09-25T04:21:59.211Z,11.20
2017-09-25T04:24:25.552Z,11.20
2017-09-25T04:26:51.861Z,11.20
2017-09-25T04:29:18.192Z,11.20
2017-09-25T04:31:44.504Z,11.10
2017-09-25T04:34:10.780Z,11.10
2017-09-25T04:36:37.146Z,11.10
2017-09-25T04:39:03.500Z,11.00
2017-09-25T04:41:29.816Z,11.00
2017-09-25T04:43:56.156Z,11.00
2017-09-25T04:46:22.496Z,10.90
2017-09-25T04:48:48.804Z,10.90
2017-09-25T04:51:15.128Z,10.90
2017-09-25T04:53:42.173Z,10.80
2017-09-25T04:56:08.483Z,10.80
2017-09-25T04:58:35.050Z,10.90
2017-09-25T05:01:02.104Z,10.90
2017-09-25T05:03:28.400Z,10.90
2017-09-25T05:05:54.717Z,10.90
2017-09-25T05:08:21.026Z,10.80
2017-09-25T05:10:47.347Z,10.80
2017-09-25T05:13:13.714Z,10.90
2017-09-25T05:15:40.029Z,10.90
2017-09-25T05:18:06.308Z,10.90
2017-09-25T05:20:36.841Z,11.00
2017-09-25T05:23:03.119Z,11.00
2017-09-25T05:25:29.424Z,11.00
2017-09-25T05:27:55.788Z,11.00
2017-09-25T05:30:22.116Z,11.10
2017-09-25T05:32:48.433Z,11.20
2017-09-25T05:35:14.719Z,11.20
2017-09-25T05:37:41.050Z,11.20
2017-09-25T05:40:07.609Z,11.20
2017-09-25T05:42:33.912Z,11.30
2017-09-25T05:45:00.960Z,11.40
2017-09-25T05:47:28.000Z,11.50
2017-09-25T05:49:55.043Z,11.60
2017-09-25T05:52:21.353Z,11.60
2017-09-25T05:54:47.671Z,11.70
2017-09-25T05:57:14.003Z,12.20
2017-09-25T05:59:40.323Z,13.00
2017-09-25T06:02:06.621Z,14.10
2017-09-25T06:04:32.933Z,15.20
2017-09-25T06:07:00.056Z,17.60
2017-09-25T06:09:27.112Z,18.60
2017-09-25T06:11:53.711Z,18.60
2017-09-25T06:14:20.037Z,19.10
2017-09-25T06:16:46.346Z,19.90
2017-09-25T06:19:12.663Z,20.90
2017-09-25T06:21:39.078Z,21.80
2017-09-25T06:24:06.183Z,23.60
2017-09-25T06:26:35.050Z,24.50
2017-09-25T06:29:01.389Z,24.50
2017-09-25T06:31:27.716Z,25.60
2017-09-25T06:33:54.051Z,26.60
2017-09-25T06:36:20.346Z,27.50
2017-09-25T06:38:46.668Z,28.00
2017-09-25T06:41:13.813Z,28.90
2017-09-25T06:43:41.000Z,29.20
2017-09-25T06:46:07.400Z,29.10
2017-09-25T06:48:34.487Z,28.70
2017-09-25T06:51:00.774Z,28.70
2017-09-25T06:53:27.852Z,27.00
2017-09-25T06:55:54.138Z,27.00
2017-09-25T06:58:20.455Z,26.10
2017-09-25T07:00:46.739Z,25.20
2017-09-25T07:03:13.103Z,24.60
2017-09-25T07:05:39.607Z,24.30
2017-09-25T07:08:05.900Z,24.30
2017-09-25T07:10:32.204Z,24.80
2017-09-25T07:12:58.500Z,25.40
2017-09-25T07:15:24.814Z,25.60
2017-09-25T07:17:51.197Z,25.80
2017-09-25T07:20:17.692Z,26.20
2017-09-25T07:22:44.159Z,26.00
2017-09-25T07:25:10.504Z,25.70
2017-09-25T07:27:36.845Z,25.50
2017-09-25T07:30:03.117Z,25.10
2017-09-25T07:32:29.455Z,24.80
2017-09-25T07:34:55.780Z,24.50
2017-09-25T07:37:22.158Z,24.30
2017-09-25T07:39:48.465Z,24.20
2017-09-25T07:42:14.744Z,24.30
2017-09-25T07:44:41.804Z,26.00
2017-09-25T07:47:08.088Z,25.90
2017-09-25T07:49:34.401Z,27.30
2017-09-25T07:52:00.676Z,28.60
2017-09-25T07:54:27.748Z,31.60
2017-09-25T07:56:54.055Z,31.50
2017-09-25T07:59:21.332Z,34.40
2017-09-25T08:01:47.776Z,34.30
2017-09-25T08:04:14.116Z,34.70
2017-09-25T08:06:40.423Z,33.80
2017-09-25T08:09:06.751Z,32.90
2017-09-25T08:11:33.261Z,32.10
2017-09-25T08:14:00.342Z,29.90
2017-09-25T08:16:26.667Z,29.80
2017-09-25T08:18:53.019Z,28.50
2017-09-25T08:21:19.336Z,27.50
2017-09-25T08:23:45.627Z,26.60
2017-09-25T08:26:12.707Z,25.30
2017-09-25T08:28:39.024Z,25.30
2017-09-25T08:31:05.335Z,24.70
2017-09-25T08:33:32.382Z,24.00
2017-09-25T08:35:59.506Z,23.70
2017-09-25T08:38:25.823Z,23.70
2017-09-25T08:40:52.162Z,23.10
2017-09-25T08:43:18.463Z,22.50
2017-09-25T08:45:44.814Z,22.10
2017-09-25T08:48:11.155Z,22.10
2017-09-25T08:50:37.689Z,22.70
2017-09-25T08:53:03.980Z,23.20
2017-09-25T08:55:30.318Z,23.30
2017-09-25T08:57:56.636Z,23.30
2017-09-25T09:00:22.917Z,23.10
2017-09-25T09:02:49.251Z,22.70
2017-09-25T09:05:17.036Z,21.80
2017-09-25T09:07:44.082Z,21.50
2017-09-25T09:10:11.200Z,21.10
2017-09-25T09:12:37.578Z,21.10
2017-09-25T09:15:03.913Z,20.90
2017-09-25T09:17:30.236Z,20.60
2017-09-25T09:19:57.313Z,20.10
2017-09-25T09:22:23.660Z,20.00
2017-09-25T09:24:49.963Z,20.00
2017-09-25T09:27:16.300Z,20.10
2017-09-25T09:29:42.575Z,20.30
2017-09-25T09:32:08.957Z,20.40
2017-09-25T09:34:35.697Z,20.50
2017-09-25T09:37:02.009Z,20.70
2017-09-25T09:39:28.335Z,20.80
2017-09-25T09:41:55.524Z,21.00
2017-09-25T09:44:22.570Z,21.10
2017-09-25T09:46:48.983Z,21.10
2017-09-25T09:49:15.309Z,21.10
2017-09-25T09:51:41.612Z,21.20
2017-09-25T09:54:08.719Z,21.30
2017-09-25T09:56:35.022Z,21.30
2017-09-25T09:59:01.367Z,21.40
2017-09-25T10:01:27.704Z,21.40
2017-09-25T10:03:54.069Z,21.50
2017-09-25T10:06:20.369Z,21.60
2017-09-25T10:08:46.680Z,21.80
2017-09-25T10:11:12.965Z,22.00
2017-09-25T10:16:12.000Z,22.30
2017-09-25T10:18:38.351Z,22.40
2017-09-25T10:21:04.666Z,22.40
2017-09-25T10:23:31.010Z,22.30
2017-09-25T10:25:57.332Z,22.40
2017-09-25T10:28:23.724Z,22.60
2017-09-25T10:30:50.776Z,22.60
2017-09-25T10:33:17.800Z,22.50
2017-09-25T10:35:44.085Z,22.40
2017-09-25T10:38:10.384Z,22.40
2017-09-25T10:40:37.450Z,22.50
2017-09-25T10:43:04.521Z,22.80
2017-09-25T10:45:30.911Z,22.80
2017-09-25T10:47:57.220Z,23.10
2017-09-25T10:50:47.184Z,23.10
2017-09-25T10:53:13.479Z,23.30
2017-09-25T10:55:39.775Z,23.60
2017-09-25T10:58:06.849Z,23.60
2017-09-25T11:00:33.888Z,23.40
2017-09-25T11:03:00.968Z,23.20
2017-09-25T11:05:27.289Z,23.20
2017-09-25T11:07:53.980Z,23.00
2017-09-25T11:10:20.275Z,23.00
2017-09-25T11:12:46.601Z,23.20
2017-09-25T11:15:12.901Z,23.10
2017-09-25T11:17:39.914Z,22.90
2017-09-25T11:20:06.226Z,22.80
2017-09-25T11:22:32.544Z,22.90
2017-09-25T11:24:58.862Z,22.80
2017-09-25T11:27:25.204Z,22.40
2017-09-25T11:29:51.540Z,22.20
2017-09-25T11:32:17.868Z,22.00
2017-09-25T11:34:44.196Z,22.10
2017-09-25T11:37:10.680Z,22.20
2017-09-25T11:39:37.800Z,21.20
2017-09-25T11:42:04.101Z,21.20
2017-09-25T11:44:30.380Z,21.00
2017-09-25T11:46:56.700Z,20.90
2017-09-25T11:49:23.055Z,20.90
2017-09-25T11:51:50.211Z,21.10
2017-09-25T11:54:17.264Z,21.20
2017-09-25T11:56:44.337Z,21.30
2017-09-25T11:59:10.640Z,21.30
2017-09-25T12:01:37.800Z,21.40
2017-09-25T12:04:04.123Z,21.30
2017-09-25T12:06:30.417Z,21.30
2017-09-25T12:08:56.747Z,21.30
2017-09-25T12:11:23.044Z,21.30
2017-09-25T12:13:49.509Z,21.30
2017-09-25T12:16:16.555Z,21.30
2017-09-25T12:18:43.604Z,21.00
2017-09-25T12:21:09.969Z,21.00
2017-09-25T12:23:36.305Z,20.80
2017-09-25T12:26:02.607Z,20.60
2017-09-25T12:28:29.670Z,20.40
2017-09-25T12:30:56.740Z,20.40
2017-09-25T12:33:23.032Z,20.40
2017-09-25T12:35:49.357Z,20.20
2017-09-25T12:38:17.592Z,19.90
2017-09-25T12:40:43.894Z,20.00
2017-09-25T12:43:10.278Z,20.30
2017-09-25T12:45:36.580Z,20.20
2017-09-25T12:48:03.009Z,20.10
2017-09-25T12:50:30.710Z,20.00
2017-09-25T12:52:57.129Z,20.00
2017-09-25T12:55:23.441Z,20.00
2017-09-25T12:57:49.964Z,20.20
2017-09-25T13:00:16.253Z,20.40
2017-09-25T13:02:43.308Z,20.80
2017-09-25T13:05:10.351Z,20.80
2017-09-25T13:07:37.601Z,20.90
2017-09-25T13:10:05.017Z,21.00
2017-09-25T13:12:31.381Z,21.00
2017-09-25T13:14:57.922Z,21.00
2017-09-25T13:17:24.963Z,20.60
2017-09-25T13:19:51.376Z,20.60
2017-09-25T13:22:17.688Z,20.40
2017-09-25T13:24:44.065Z,20.50
2017-09-25T13:27:11.079Z,20.50
2017-09-25T13:29:37.388Z,20.50
2017-09-25T13:32:03.712Z,20.50
2017-09-25T13:34:30.022Z,20.50
2017-09-25T13:36:56.309Z,20.40
2017-09-25T13:39:22.619Z,20.50
2017-09-25T13:41:49.130Z,20.50
2017-09-25T13:44:15.401Z,20.60
2017-09-25T13:46:41.697Z,20.70
2017-09-25T13:49:08.041Z,20.90
2017-09-25T13:51:34.349Z,21.00
2017-09-25T13:54:00.751Z,21.00
2017-09-25T13:56:27.856Z,21.20
2017-09-25T14:03:58.471Z,21.00
2017-09-25T14:06:24.780Z,21.00
2017-09-25T14:08:51.099Z,21.10
2017-09-25T14:11:17.364Z,21.10
2017-09-25T14:13:43.648Z,20.90
2017-09-25T14:16:10.000Z,20.70
2017-09-25T14:18:36.280Z,20.60
2017-09-25T14:21:02.605Z,20.50
2017-09-25T14:23:28.880Z,20.30
2017-09-25T14:25:55.228Z,20.20
2017-09-25T14:28:22.352Z,20.20
2017-09-25T14:30:48.648Z,20.20
2017-09-25T14:33:14.936Z,20.40
2017-09-25T14:35:41.976Z,20.30
2017-09-25T14:38:08.689Z,20.30
2017-09-25T14:40:35.008Z,20.20
2017-09-25T14:43:01.353Z,20.20
2017-09-25T14:45:27.821Z,20.00
2017-09-25T14:47:54.830Z,20.00
2017-09-25T14:50:28.065Z,20.00
2017-09-25T14:52:55.076Z,20.00
2017-09-25T14:55:21.360Z,19.90
2017-09-25T14:57:47.668Z,20.00
2017-09-25T15:00:14.700Z,19.80
2017-09-25T15:02:41.021Z,19.80
2017-09-25T15:05:07.325Z,19.80
2017-09-25T15:07:33.629Z,19.70
2017-09-25T15:09:59.940Z,19.60
2017-09-25T15:12:26.250Z,19.60
2017-09-25T15:14:52.601Z,19.50
2017-09-25T15:17:19.835Z,19.30
2017-09-25T15:19:46.876Z,19.20
2017-09-25T15:22:13.502Z,19.10
2017-09-25T15:24:40.550Z,18.90
2017-09-25T15:27:06.867Z,18.90
2017-09-25T15:29:33.193Z,18.90
2017-09-25T15:31:59.649Z,18.80
2017-09-25T15:34:27.429Z,18.70
2017-09-25T15:36:54.481Z,18.60
2017-09-25T15:39:21.664Z,18.60
2017-09-25T15:41:48.129Z,18.60
2017-09-25T15:44:14.457Z,18.50
2017-09-25T15:46:40.996Z,18.50
2017-09-25T15:49:07.403Z,18.50
2017-09-25T15:51:33.727Z,18.40
2017-09-25T15:54:00.079Z,18.40
2017-09-25T15:56:26.400Z,18.40
2017-09-25T15:58:52.912Z,18.40
2017-09-25T16:01:19.232Z,18.30
2017-09-25T16:03:45.536Z,18.30
2017-09-25T16:06:12.583Z,18.20
2017-09-25T16:08:39.692Z,18.20
2017-09-25T16:11:06.262Z,18.20
2017-09-25T16:13:32.582Z,18.10
2017-09-25T16:15:58.905Z,18.10
2017-09-25T16:18:25.285Z,18.00
2017-09-25T16:20:51.821Z,18.00
2017-09-25T16:23:18.124Z,18.00
2017-09-25T16:25:45.966Z,17.80
2017-09-25T16:28:12.325Z,17.80
2017-09-25T16:30:39.825Z,17.80
2017-09-25T16:33:06.126Z,17.70
2017-09-25T16:35:33.208Z,17.70
2017-09-25T16:37:59.569Z,17.70
2017-09-25T16:40:25.936Z,17.60
2017-09-25T16:42:53.021Z,17.50
2017-09-25T16:45:19.320Z,17.40
2017-09-25T16:47:45.688Z,17.40
2017-09-25T16:50:12.028Z,17.50
2017-09-25T16:52:38.477Z,17.50
2017-09-25T16:55:04.817Z,17.70
2017-09-25T16:57:31.226Z,17.70
2017-09-25T16:59:57.700Z,17.60
2017-09-25T17:02:24.751Z,17.40
2017-09-25T17:04:52.193Z,17.20
2017-09-25T17:07:18.889Z,17.20
2017-09-25T17:09:45.209Z,17.20
2017-09-25T17:12:11.584Z,17.10
2017-09-25T17:14:37.924Z,16.90
2017-09-25T17:17:05.156Z,16.70
2017-09-25T17:19:32.493Z,16.80
2017-09-25T17:21:59.119Z,16.80
2017-09-25T17:24:25.733Z,16.80
2017-09-25T17:26:52.474Z,16.70
2017-09-25T17:29:19.220Z,16.50
2017-09-25T17:31:46.055Z,16.40
2017-09-25T17:34:12.806Z,16.20
2017-09-25T17:36:39.540Z,16.30
2017-09-25T17:39:06.380Z,16.10
2017-09-25T17:41:33.226Z,16.10
2017-09-25T17:43:59.682Z,16.00
2017-09-25T17:46:26.046Z,16.10
2017-09-25T17:48:52.372Z,16.20
2017-09-25T17:51:18.687Z,16.00
2017-09-25T17:53:45.025Z,15.90
2017-09-25T17:56:11.342Z,15.80
2017-09-25T17:58:37.706Z,15.70
2017-09-25T18:01:04.808Z,15.60
2017-09-25T18:03:31.133Z,15.60
2017-09-25T18:05:57.517Z,15.70
2017-09-25T18:08:24.576Z,15.70
2017-09-25T18:10:51.676Z,15.70
2017-09-25T18:13:17.996Z,15.70
2017-09-25T18:15:44.370Z,15.60
2017-09-25T18:18:10.713Z,15.70
2017-09-25T18:20:37.797Z,15.60
2017-09-25T18:23:04.132Z,15.60
2017-09-25T18:25:30.639Z,15.60
2017-09-25T18:27:56.958Z,15.60
2017-09-25T18:30:24.050Z,15.60
2017-09-25T18:32:54.652Z,15.50
2017-09-25T18:35:20.968Z,15.60
2017-09-25T18:37:48.237Z,15.60
2017-09-25T18:40:14.588Z,15.60
2017-09-25T18:42:40.948Z,15.60
2017-09-25T18:45:07.293Z,15.70
2017-09-25T18:47:33.622Z,15.70
2017-09-25T18:49:59.917Z,15.70
2017-09-25T18:52:26.283Z,15.70
2017-09-25T18:54:52.662Z,15.70
2017-09-25T18:57:19.229Z,15.70
2017-09-25T18:59:45.657Z,15.70
2017-09-25T19:02:11.978Z,15.70
2017-09-25T19:04:38.333Z,15.70
2017-09-25T19:07:04.717Z,15.70
2017-09-25T19:09:31.103Z,15.60
2017-09-25T19:11:57.417Z,15.60
2017-09-25T19:14:23.767Z,15.50
2017-09-25T19:16:50.860Z,15.30
2017-09-25T19:19:17.220Z,15.30
2017-09-25T19:21:43.632Z,15.30
2017-09-25T19:24:09.957Z,15.10
2017-09-25T19:26:36.329Z,15.00
2017-09-25T19:29:02.700Z,15.00
2017-09-25T19:31:29.818Z,14.80
2017-09-25T19:33:56.112Z,14.80
2017-09-25T19:36:22.463Z,14.80
2017-09-25T19:38:48.763Z,14.70
2017-09-25T19:41:15.091Z,14.60
2017-09-25T19:43:41.557Z,14.50
2017-09-25T19:46:07.923Z,14.50
2017-09-25T19:48:35.060Z,14.40
2017-09-25T19:54:03.092Z,14.30
2017-09-25T19:56:34.319Z,14.30
2017-09-25T19:59:01.593Z,14.30
2017-09-25T20:01:27.921Z,14.20
2017-09-25T20:03:54.321Z,14.40
2017-09-25T20:06:21.449Z,14.40
2017-09-25T20:08:47.739Z,14.50
2017-09-25T20:11:15.233Z,14.40
2017-09-25T20:13:43.340Z,14.30
2017-09-25T20:16:21.264Z,14.00
2017-09-25T20:18:47.590Z,13.90
2017-09-25T20:21:13.996Z,13.90
2017-09-25T20:23:41.059Z,13.70
2017-09-25T20:26:07.461Z,13.70
2017-09-25T20:28:34.557Z,13.70
2017-09-25T20:31:00.918Z,13.60
2017-09-25T20:33:27.253Z,13.60
2017-09-25T20:35:53.736Z,13.60
2017-09-25T20:38:20.213Z,13.60
2017-09-25T20:40:58.482Z,13.60
2017-09-25T20:43:30.851Z,13.60
2017-09-25T20:45:57.230Z,13.60
2017-09-25T20:48:23.755Z,13.60
2017-09-25T20:50:50.135Z,13.60
2017-09-25T20:53:17.204Z,13.60
2017-09-25T20:55:43.508Z,13.60
2017-09-25T20:58:10.583Z,13.50
2017-09-25T21:00:36.876Z,13.50
2017-09-25T21:03:03.410Z,13.50
2017-09-25T21:05:30.452Z,13.40
2017-09-25T21:07:56.888Z,13.40
2017-09-25T21:10:23.282Z,13.40
2017-09-25T21:12:49.638Z,13.40
2017-09-25T21:15:16.155Z,13.40
2017-09-25T21:17:42.500Z,13.40
2017-09-25T21:20:08.872Z,13.40
2017-09-25T21:22:35.946Z,13.40
2017-09-25T21:25:02.282Z,13.30
2017-09-25T21:27:32.605Z,13.40
2017-09-25T21:29:59.030Z,13.30
2017-09-25T21:32:25.460Z,13.30
2017-09-25T21:34:51.755Z,13.30
2017-09-25T21:37:18.872Z,13.30
2017-09-25T21:39:45.376Z,13.30
2017-09-25T21:42:11.872Z,13.30
2017-09-25T21:44:39.104Z,13.30
2017-09-25T21:47:05.507Z,13.30
2017-09-25T21:49:31.797Z,13.20
2017-09-25T21:51:58.284Z,13.20
2017-09-25T21:54:24.566Z,13.20
2017-09-25T21:56:50.936Z,13.30
2017-09-25T21:59:17.335Z,13.30
2017-09-25T22:01:47.176Z,13.20
2017-09-25T22:04:13.917Z,13.20
2017-09-25T22:06:40.240Z,13.20
2017-09-25T22:09:06.593Z,13.20
2017-09-25T22:11:32.913Z,13.10
2017-09-25T22:13:59.352Z,13.20
2017-09-25T22:16:26.450Z,13.10
2017-09-25T22:18:53.564Z,13.20
2017-09-25T22:21:19.859Z,13.20
2017-09-25T22:23:46.152Z,13.20
2017-09-25T22:26:13.299Z,13.20
2017-09-25T22:28:40.353Z,13.10
2017-09-25T22:31:07.447Z,13.20
2017-09-25T22:33:33.797Z,13.10
2017-09-25T22:36:00.124Z,13.10
2017-09-25T22:38:26.485Z,13.00
2017-09-25T22:40:53.512Z,13.00
2017-09-25T22:46:25.405Z,13.00
2017-09-25T22:48:51.760Z,13.00
2017-09-25T22:51:18.769Z,12.90
2017-09-25T22:53:45.081Z,12.90
2017-09-25T22:56:11.431Z,12.90
2017-09-25T22:58:37.713Z,12.90
2017-09-25T23:01:03.995Z,12.80
2017-09-25T23:03:30.335Z,12.70
2017-09-25T23:05:57.488Z,12.60
2017-09-25T23:08:23.776Z,12.60
2017-09-25T23:10:50.180Z,12.60
2017-09-25T23:13:16.498Z,12.60
2017-09-25T23:15:43.559Z,12.40
2017-09-25T23:18:09.882Z,12.40
2017-09-25T23:20:36.185Z,12.40
2017-09-25T23:23:02.568Z,12.30
2017-09-25T23:25:28.888Z,12.30
2017-09-25T23:27:55.230Z,12.30
2017-09-25T23:30:27.399Z,12.20
2017-09-25T23:32:53.767Z,12.10
2017-09-25T23:35:20.119Z,12.10
2017-09-25T23:37:47.189Z,12.00
2017-09-25T23:40:13.701Z,12.00
2017-09-25T23:42:40.746Z,12.00
2017-09-25T23:45:07.781Z,12.00
2017-09-25T23:47:34.859Z,12.00
2017-09-25T23:50:01.876Z,12.00
2017-09-25T23:52:28.189Z,12.00
2017-09-25T23:54:54.533Z,12.10
2017-09-25T23:57:20.907Z,12.10
2017-09-25T23:59:47.203Z,12.10
